createdAt,value
2022-11-29T00:03:22.619Z,30.75
2022-11-29T00:08:24.058Z,30.86
2022-11-29T00:13:25.416Z,30.79
2022-11-29T00:18:26.787Z,30.78
2022-11-29T00:23:28.211Z,30.57
2022-11-29T00:28:29.578Z,30.76
2022-11-29T00:33:30.991Z,30.58
2022-11-29T00:38:32.359Z,30.70
2022-11-29T00:43:33.764Z,30.93
2022-11-29T00:48:35.235Z,31.16
2022-11-29T00:53:36.675Z,30.78
2022-11-29T00:58:38.113Z,31.03
2022-11-29T01:03:39.638Z,30.78
2022-11-29T01:08:41.049Z,30.90
2022-11-29T01:13:42.502Z,30.70
2022-11-29T01:18:43.885Z,31.07
2022-11-29T01:23:45.671Z,30.80
2022-11-29T01:28:47.815Z,30.75
2022-11-29T01:33:49.248Z,30.85
2022-11-29T01:38:50.617Z,31.09
2022-11-29T01:44:13.006Z,30.80
2022-11-29T01:49:16.707Z,31.09
2022-11-29T01:54:18.119Z,31.05
2022-11-29T01:59:23.631Z,30.96
2022-11-29T02:04:25.006Z,31.05
2022-11-29T02:09:26.428Z,31.09
2022-11-29T02:14:49.409Z,31.01
2022-11-29T02:20:12.471Z,30.99
2022-11-29T02:25:54.857Z,31.15
2022-11-29T02:31:11.526Z,31.16
2022-11-29T02:36:22.112Z,31.14
2022-11-29T02:41:45.147Z,31.28
2022-11-29T02:46:55.855Z,31.26
2022-11-29T02:52:19.359Z,31.24
2022-11-29T02:57:29.594Z,31.15
2022-11-29T03:03:09.019Z,31.37
2022-11-29T03:08:48.292Z,31.34
2022-11-29T03:14:11.404Z,31.32
2022-11-29T03:19:53.858Z,31.68
2022-11-29T03:25:07.828Z,31.63
2022-11-29T03:30:11.261Z,31.71
2022-11-29T03:35:46.298Z,31.59
2022-11-29T03:41:04.042Z,31.79
2022-11-29T03:46:09.318Z,31.70
2022-11-29T03:51:36.543Z,31.71
2022-11-29T03:56:39.542Z,31.71
2022-11-29T04:02:20.591Z,31.68
2022-11-29T04:07:31.257Z,31.88
2022-11-29T04:12:57.256Z,31.94
2022-11-29T04:18:32.055Z,31.96
2022-11-29T04:23:52.627Z,31.77
2022-11-29T04:29:14.777Z,32.00
2022-11-29T04:34:24.980Z,31.64
2022-11-29T04:39:56.371Z,31.73
2022-11-29T04:45:15.973Z,31.79
2022-11-29T04:50:31.023Z,31.90
2022-11-29T04:55:41.273Z,31.83
2022-11-29T05:00:49.709Z,31.74
2022-11-29T05:05:59.303Z,31.89
2022-11-29T05:11:00.508Z,31.84
2022-11-29T05:16:31.559Z,31.91
2022-11-29T05:21:43.111Z,32.01
2022-11-29T05:27:10.227Z,32.00
2022-11-29T05:32:34.791Z,32.21
2022-11-29T05:38:01.204Z,31.95
2022-11-29T05:43:20.740Z,31.81
2022-11-29T05:48:29.811Z,31.89
2022-11-29T05:53:36.491Z,31.94
2022-11-29T05:58:48.104Z,31.62
2022-11-29T06:04:04.610Z,31.81
2022-11-29T06:09:26.116Z,31.70
2022-11-29T06:14:45.850Z,31.73
2022-11-29T06:20:19.006Z,31.27
2022-11-29T06:25:47.211Z,31.52
2022-11-29T06:31:09.497Z,31.77
2022-11-29T06:36:19.875Z,31.82
2022-11-29T06:41:22.807Z,31.68
2022-11-29T06:46:29.798Z,31.79
2022-11-29T06:52:22.220Z,31.00
2022-11-29T06:57:57.568Z,31.05
2022-11-29T07:03:06.618Z,30.96
2022-11-29T07:08:18.559Z,31.11
2022-11-29T07:13:20.272Z,31.30
2022-11-29T07:18:27.959Z,30.63
2022-11-29T07:23:38.405Z,30.78
2022-11-29T07:28:54.959Z,30.77
2022-11-29T07:34:21.028Z,31.09
2022-11-29T07:39:32.580Z,30.66
2022-11-29T07:44:58.763Z,30.69
2022-11-29T07:50:00.133Z,30.60
2022-11-29T07:55:01.995Z,30.40
2022-11-29T08:00:04.075Z,30.38
2022-11-29T08:05:05.772Z,30.42
2022-11-29T08:10:11.892Z,30.71
2022-11-29T08:15:13.472Z,30.23
2022-11-29T08:20:15.416Z,30.37
2022-11-29T08:25:16.823Z,30.35
2022-11-29T08:30:18.751Z,30.31
2022-11-29T08:35:21.424Z,30.51
2022-11-29T08:40:24.198Z,30.05
2022-11-29T08:45:25.839Z,30.49
2022-11-29T08:50:27.455Z,30.38
2022-11-29T08:55:32.349Z,30.13
2022-11-29T09:00:34.098Z,30.62
2022-11-29T09:05:36.325Z,30.91
2022-11-29T09:10:39.446Z,30.84
2022-11-29T09:15:42.005Z,30.92
2022-11-29T09:20:43.973Z,31.10
2022-11-29T09:25:48.712Z,31.04
2022-11-29T09:30:50.522Z,31.31
2022-11-29T09:35:51.992Z,31.04
2022-11-29T09:40:55.379Z,31.24
2022-11-29T09:46:26.457Z,30.92
2022-11-29T09:51:44.551Z,31.16
2022-11-29T09:56:47.263Z,30.55
2022-11-29T10:01:54.631Z,30.78
2022-11-29T10:07:21.365Z,30.61
2022-11-29T10:12:45.754Z,30.69
2022-11-29T10:17:49.557Z,30.41
2022-11-29T10:23:02.707Z,30.46
2022-11-29T10:28:04.822Z,30.72
2022-11-29T10:33:14.494Z,30.84
2022-11-29T10:38:30.700Z,31.04
2022-11-29T10:43:32.533Z,30.69
2022-11-29T10:48:33.935Z,30.62
2022-11-29T10:53:38.475Z,30.43
2022-11-29T10:59:03.146Z,30.63
2022-11-29T11:04:07.185Z,30.42
2022-11-29T11:09:20.436Z,30.16
2022-11-29T11:14:32.125Z,30.17
2022-11-29T11:19:34.095Z,29.96
2022-11-29T11:24:40.443Z,29.84
2022-11-29T11:29:42.949Z,29.72
2022-11-29T11:34:54.924Z,29.77
2022-11-29T11:39:58.110Z,29.79
2022-11-29T11:44:59.693Z,29.98
2022-11-29T11:50:03.807Z,30.06
2022-11-29T11:55:16.633Z,30.15
2022-11-29T12:01:02.972Z,29.99
2022-11-29T12:06:24.540Z,29.85
2022-11-29T12:11:25.945Z,29.97
2022-11-29T12:16:33.396Z,29.93
2022-11-29T12:21:37.476Z,29.88
2022-11-29T12:32:18.927Z,29.89
2022-11-29T12:37:35.435Z,29.92
2022-11-29T12:42:41.900Z,29.90
2022-11-29T12:48:08.940Z,29.96
2022-11-29T12:53:13.267Z,29.92
2022-11-29T12:58:41.324Z,29.87
2022-11-29T13:04:28.466Z,29.80
2022-11-29T13:09:47.983Z,30.39
2022-11-29T13:15:01.926Z,29.94
2022-11-29T13:20:41.530Z,30.69
2022-11-29T13:25:44.003Z,30.32
2022-11-29T13:30:45.375Z,30.14
2022-11-29T13:36:12.453Z,29.89
2022-11-29T13:41:26.619Z,29.87
2022-11-29T13:46:49.923Z,30.15
2022-11-29T13:52:04.028Z,30.22
2022-11-29T13:57:06.675Z,30.26
2022-11-29T14:02:34.515Z,30.05
2022-11-29T14:07:36.400Z,30.20
2022-11-29T14:12:40.741Z,30.44
2022-11-29T14:17:55.982Z,30.06
2022-11-29T14:23:07.631Z,30.08
2022-11-29T14:28:11.963Z,29.98
2022-11-29T14:33:13.171Z,29.93
2022-11-29T14:38:19.327Z,29.92
2022-11-29T14:43:29.145Z,30.14
2022-11-29T14:48:30.610Z,29.99
2022-11-29T14:53:33.737Z,30.09
2022-11-29T14:58:35.107Z,30.36
2022-11-29T15:03:38.943Z,30.44
2022-11-29T15:08:48.236Z,30.00
2022-11-29T15:14:19.206Z,30.19
2022-11-29T15:19:57.593Z,30.16
2022-11-29T15:25:12.784Z,30.30
2022-11-29T15:30:18.948Z,30.06
2022-11-29T15:35:20.431Z,30.08
2022-11-29T15:40:23.429Z,29.42
2022-11-29T15:45:35.118Z,29.78
2022-11-29T15:50:36.529Z,29.95
2022-11-29T15:55:37.899Z,29.84
2022-11-29T16:00:39.340Z,29.80
2022-11-29T16:05:40.792Z,29.79
2022-11-29T16:10:49.152Z,29.81
2022-11-29T16:16:06.825Z,29.71
2022-11-29T16:21:25.312Z,29.74
2022-11-29T16:26:30.147Z,29.62
2022-11-29T16:31:36.062Z,29.72
2022-11-29T16:36:37.531Z,29.59
2022-11-29T16:41:38.930Z,29.43
2022-11-29T16:46:40.323Z,29.56
2022-11-29T16:51:47.867Z,29.44
2022-11-29T16:56:52.496Z,29.52
2022-11-29T17:01:53.924Z,29.50
2022-11-29T17:06:55.695Z,29.47
2022-11-29T17:12:01.529Z,29.69
2022-11-29T17:17:02.843Z,29.58
2022-11-29T17:22:04.265Z,29.69
2022-11-29T17:27:05.705Z,29.81
2022-11-29T17:32:07.135Z,29.47
2022-11-29T17:37:08.556Z,29.69
2022-11-29T17:42:11.947Z,29.87
2022-11-29T17:47:13.344Z,29.80
2022-11-29T17:52:14.719Z,29.72
2022-11-29T17:57:16.365Z,29.90
2022-11-29T18:02:17.791Z,29.88
2022-11-29T18:07:19.317Z,29.81
2022-11-29T18:12:22.359Z,29.73
2022-11-29T18:17:23.732Z,29.77
2022-11-29T18:22:25.097Z,29.57
2022-11-29T18:27:26.459Z,29.74
2022-11-29T18:32:27.856Z,29.78
2022-11-29T18:38:05.104Z,29.55
2022-11-29T18:42:50.943Z,29.68
2022-11-29T18:47:52.303Z,29.72
2022-11-29T18:52:55.540Z,29.69
2022-11-29T18:57:56.943Z,29.93
2022-11-29T19:02:58.352Z,29.69
2022-11-29T19:07:59.869Z,29.57
2022-11-29T19:13:01.302Z,29.49
2022-11-29T19:18:02.673Z,29.43
2022-11-29T19:23:04.045Z,29.75
2022-11-29T19:28:09.475Z,29.67
2022-11-29T19:33:15.196Z,29.79
2022-11-29T19:38:16.598Z,29.62
2022-11-29T19:43:18.117Z,29.67
2022-11-29T19:48:19.541Z,29.64
2022-11-29T19:53:20.911Z,29.59
2022-11-29T19:58:22.398Z,29.56
2022-11-29T20:03:23.796Z,29.73
2022-11-29T20:08:25.191Z,29.60
2022-11-29T20:13:26.632Z,29.67
2022-11-29T20:18:32.387Z,29.54
2022-11-29T20:23:33.861Z,29.67
2022-11-29T20:28:35.657Z,29.55
2022-11-29T20:33:37.032Z,29.31
2022-11-29T20:38:45.639Z,29.44
2022-11-29T20:43:57.886Z,29.63
2022-11-29T20:49:05.993Z,29.43
2022-11-29T20:54:10.404Z,29.59
2022-11-29T20:59:11.763Z,29.46
2022-11-29T21:04:13.220Z,29.31
2022-11-29T21:09:14.659Z,29.23
2022-11-29T21:14:16.233Z,29.27
2022-11-29T21:19:19.492Z,29.61
2022-11-29T21:24:42.592Z,29.35
2022-11-29T21:29:44.067Z,29.61
2022-11-29T21:34:45.746Z,29.35
2022-11-29T21:39:47.677Z,29.31
2022-11-29T21:44:49.257Z,29.39
2022-11-29T21:49:52.617Z,29.17
2022-11-29T21:54:55.088Z,29.28
2022-11-29T21:59:56.756Z,29.23
2022-11-29T22:04:58.132Z,29.17
2022-11-29T22:10:09.936Z,29.19
2022-11-29T22:15:19.094Z,29.08
2022-11-29T22:20:23.006Z,29.29
2022-11-29T22:25:24.391Z,29.20
2022-11-29T22:30:25.799Z,29.21
2022-11-29T22:35:27.175Z,29.18
2022-11-29T22:40:28.543Z,29.34
2022-11-29T22:45:29.914Z,29.10
2022-11-29T22:50:31.278Z,29.25
2022-11-29T22:55:32.644Z,29.04
2022-11-29T23:00:35.858Z,29.21
2022-11-29T23:05:37.288Z,29.00
2022-11-29T23:10:38.667Z,29.29
2022-11-29T23:15:40.067Z,29.16
2022-11-29T23:20:41.440Z,29.09
2022-11-29T23:25:49.427Z,29.18
2022-11-29T23:30:51.089Z,28.99
2022-11-29T23:36:01.872Z,29.19
2022-11-29T23:41:03.749Z,29.21
2022-11-29T23:46:09.661Z,29.11
2022-11-29T23:51:11.002Z,29.05
2022-11-29T23:56:13.896Z,28.93
